Youngstown, NY

5:54 AM EDT on August 20, 2014 (GMT -0400)
the original Riverbend Farm | Change Station
CLOSE
Current Station
Personal Weather Station
Location: Niagara On The Lake, Ontario
Elevation: 315 ft
Nearby Weather Stations

Elev 315 ft 43.21 °N, 79.06 °W | Updated 2 seconds ago

Mostly Cloudy
Mostly Cloudy
63.7 °F
Feels Like 63.7 °F
N
0.0
Wind Variable Wind from WNW
Gusts 0.0 mph

Today
High -- | Low -- °F
--% Chance of Precip.
Yesterday
High -- | Low -- °F
Precip. -- in
6:26 AM 8:11 PM
Waning Crescent, 23% visible
Pressure 29.82 in
Visibility 10.0 miles
Clouds Mostly Cloudy 10000 ft
Dew Point 62 °F
Humidity 93%
Rainfall 0.00 in
Snow Depth Not available.
UV 0 out of 12
Pollen 9.60 out of 12
Air Quality Not available.
Flu Activity Not available.
METAR KIAG 200853Z AUTO 00000KT 10SM BKN100 20/17 A2983 RMK AO2 SLP097 T02000167 53001

More Conditions Fewer Conditions

Pressure 29.82 in
Visibility 10.0 miles
Clouds Mostly Cloudy 10000 ft
Dew Point 62 °F
Humidity 93%
Rainfall 0.00 in
Snow Depth Not available.
UV 0 out of 12
Pollen 9.60 out of 12
Air Quality Not available.
Flu Activity Not available.
METAR KIAG 200853Z AUTO 00000KT 10SM BKN100 20/17 A2983 RMK AO2 SLP097 T02000167 53001

More Conditions Fewer Conditions

10-Day Weather Forecast

Almanac

Astronomy

Aug. 20, 2014 Rise Set
Actual Time 6:26 AM EDT 8:11 PM EDT
Civil Twilight 5:56 AM EDT 8:41 PM EDT
Nautical Twilight 5:19 AM EDT 9:18 PM EDT
Astronomical Twilight 4:39 AM EDT 9:57 PM EDT
Moon 2:02 AM EDT 4:57 PM EDT
Length of Visible Light 14h 44m
Length of Day
13h 44m
Tomorrow will be 2m 43s shorter.
Waning Crescent, 23% of the Moon is Illuminated
Today
Waning Crescent
Aug 25
New
Sep 2
First Quarter
Sep 8
Full
Sep 15
Last Quarter

Today's Extremes

State Highs State Lows

Community

WunderPhotos

Upload Photos

1,745,604 photos uploaded!

Nearby

Air Quality

  Air Quality AQ Index Pollutant
Wednesday Good
PM2.5
Wednesday Good
OZONE

Snow Depth

Station Depth Elevation
No new snow has been reported.

Earthquake Activity

City Distance Mag. Time & Date
No recent earthquake activity has been reported nearby.
Minimum magnitude displayed is 2.5.

Coastal Water Temperatures

Place Temperature
Buffalo, NY 71.1 °F

Nearby Weather Stations